createdAt,value
2017-10-14T00:01:59.701Z,99.90
2017-10-14T00:04:27.247Z,99.90
2017-10-14T00:06:54.706Z,99.90
2017-10-14T00:09:22.167Z,99.90
2017-10-14T00:11:49.614Z,99.90
2017-10-14T00:14:17.115Z,99.90
2017-10-14T00:16:45.364Z,99.90
2017-10-14T00:19:12.848Z,99.90
2017-10-14T00:21:41.077Z,99.90
2017-10-14T00:24:08.531Z,99.90
2017-10-14T00:26:35.988Z,99.90
2017-10-14T00:29:03.461Z,99.90
2017-10-14T00:31:30.914Z,99.90
2017-10-14T00:33:58.382Z,99.90
2017-10-14T00:36:25.903Z,99.90
2017-10-14T00:38:53.414Z,99.90
2017-10-14T00:41:20.871Z,99.90
2017-10-14T00:43:48.322Z,99.90
2017-10-14T00:46:15.814Z,99.90
2017-10-14T00:48:43.318Z,99.90
2017-10-14T00:51:10.797Z,99.90
2017-10-14T00:53:38.343Z,99.90
2017-10-14T00:56:05.898Z,99.90
2017-10-14T00:58:33.390Z,99.90
2017-10-14T01:01:01.643Z,99.90
2017-10-14T01:03:29.105Z,99.90
2017-10-14T01:05:56.542Z,99.90
2017-10-14T01:08:24.112Z,99.90
2017-10-14T01:10:51.566Z,99.90
2017-10-14T01:13:19.131Z,99.90
2017-10-14T01:15:46.673Z,99.90
2017-10-14T01:18:14.138Z,99.90
2017-10-14T01:20:41.620Z,99.90
2017-10-14T01:23:09.878Z,99.90
2017-10-14T01:25:37.993Z,99.90
2017-10-14T01:28:05.454Z,99.90
2017-10-14T01:30:32.905Z,99.90
2017-10-14T01:33:00.412Z,99.90
2017-10-14T01:35:27.890Z,99.90
2017-10-14T01:37:55.353Z,99.90
2017-10-14T01:40:22.942Z,99.90
2017-10-14T01:42:50.441Z,99.90
2017-10-14T01:45:17.915Z,99.90
2017-10-14T01:47:45.372Z,99.90
2017-10-14T01:50:14.351Z,99.90
2017-10-14T01:52:41.834Z,99.90
2017-10-14T01:55:09.305Z,99.90
2017-10-14T01:57:36.849Z,99.90
2017-10-14T02:00:04.352Z,99.90
2017-10-14T02:02:31.870Z,99.90
2017-10-14T02:04:59.339Z,99.90
2017-10-14T02:07:27.690Z,99.90
2017-10-14T02:09:55.166Z,99.90
2017-10-14T02:12:23.423Z,99.90
2017-10-14T02:14:50.981Z,99.90
2017-10-14T02:17:18.438Z,99.90
2017-10-14T02:19:46.017Z,99.90
2017-10-14T02:22:13.481Z,99.90
2017-10-14T02:24:40.945Z,99.90
2017-10-14T02:27:08.575Z,99.90
2017-10-14T02:29:36.029Z,99.90
2017-10-14T02:32:03.603Z,99.90
2017-10-14T02:34:31.069Z,99.90
2017-10-14T02:36:58.525Z,99.90
2017-10-14T02:39:26.758Z,99.90
2017-10-14T02:41:54.247Z,99.90
2017-10-14T02:44:21.698Z,99.90
2017-10-14T02:46:49.221Z,99.90
2017-10-14T02:49:16.675Z,99.90
2017-10-14T02:51:44.127Z,99.90
2017-10-14T02:54:11.570Z,99.90
2017-10-14T02:56:39.110Z,99.90
2017-10-14T02:59:07.329Z,99.90
2017-10-14T03:01:34.828Z,99.90
2017-10-14T03:04:02.371Z,99.90
2017-10-14T03:06:29.900Z,99.90
2017-10-14T03:08:57.351Z,99.90
2017-10-14T03:11:24.858Z,99.90
2017-10-14T03:13:52.425Z,99.90
2017-10-14T03:16:19.885Z,99.90
2017-10-14T03:18:47.338Z,99.90
2017-10-14T03:21:14.953Z,99.90
2017-10-14T03:23:42.437Z,99.90
2017-10-14T03:26:09.910Z,99.90
2017-10-14T03:28:37.390Z,99.90
2017-10-14T03:31:05.611Z,99.90
2017-10-14T03:33:33.090Z,99.90
2017-10-14T03:36:00.545Z,99.90
2017-10-14T03:38:28.020Z,99.90
2017-10-14T03:40:55.482Z,99.90
2017-10-14T03:43:24.542Z,99.90
2017-10-14T03:45:52.022Z,99.90
2017-10-14T03:48:19.587Z,99.90
2017-10-14T03:50:47.037Z,99.90
2017-10-14T03:53:14.608Z,99.90
2017-10-14T03:55:42.174Z,99.90
2017-10-14T03:58:10.390Z,99.90
2017-10-14T04:00:37.853Z,99.90
2017-10-14T04:03:05.413Z,99.90
2017-10-14T04:05:32.870Z,99.90
2017-10-14T04:08:00.365Z,99.90
2017-10-14T04:10:27.995Z,99.90
2017-10-14T04:12:55.501Z,99.90
2017-10-14T04:15:22.960Z,99.90
2017-10-14T04:17:51.221Z,99.90
2017-10-14T04:20:19.484Z,99.90
2017-10-14T04:22:46.925Z,99.90
2017-10-14T04:25:14.382Z,99.90
2017-10-14T04:27:41.846Z,99.90
2017-10-14T04:30:09.321Z,99.90
2017-10-14T04:32:36.779Z,99.90
2017-10-14T04:35:04.258Z,99.90
2017-10-14T04:37:31.736Z,99.90
2017-10-14T04:39:59.185Z,99.90
2017-10-14T04:42:27.442Z,99.90
2017-10-14T04:44:54.906Z,99.90
2017-10-14T04:47:22.441Z,99.90
2017-10-14T04:49:49.909Z,99.90
2017-10-14T04:52:17.357Z,99.90
2017-10-14T04:54:44.862Z,99.90
2017-10-14T04:57:13.109Z,99.90
2017-10-14T04:59:40.550Z,99.90
2017-10-14T05:02:08.009Z,99.90
2017-10-14T05:04:35.461Z,99.90
2017-10-14T05:07:02.922Z,99.90
2017-10-14T05:09:30.398Z,99.90
2017-10-14T05:11:57.882Z,99.90
2017-10-14T05:14:26.110Z,99.90
2017-10-14T05:16:53.726Z,99.90
2017-10-14T05:19:21.937Z,99.90
2017-10-14T05:21:49.398Z,99.90
2017-10-14T05:24:16.855Z,99.90
2017-10-14T05:26:44.306Z,99.90
2017-10-14T05:29:11.786Z,99.90
2017-10-14T05:31:40.073Z,99.90
2017-10-14T05:34:07.513Z,99.90
2017-10-14T05:36:35.016Z,99.90
2017-10-14T05:39:03.218Z,99.90
2017-10-14T05:41:30.725Z,99.90
2017-10-14T05:43:58.321Z,99.90
2017-10-14T05:46:25.790Z,99.90
2017-10-14T05:48:53.320Z,99.90
2017-10-14T05:51:20.798Z,99.90
2017-10-14T05:53:48.311Z,99.90
2017-10-14T05:56:15.776Z,99.90
2017-10-14T05:58:43.309Z,99.90
2017-10-14T06:01:10.766Z,99.90
2017-10-14T06:03:38.226Z,99.90
2017-10-14T06:06:05.775Z,99.90
2017-10-14T06:08:33.221Z,99.90
2017-10-14T06:11:00.681Z,99.90
2017-10-14T06:13:28.149Z,99.90
2017-10-14T06:15:56.431Z,99.90
2017-10-14T06:18:24.043Z,99.90
2017-10-14T06:20:51.559Z,99.90
2017-10-14T06:23:19.013Z,99.90
2017-10-14T06:25:46.586Z,99.90
2017-10-14T06:28:14.029Z,99.90
2017-10-14T06:30:41.499Z,99.90
2017-10-14T06:33:09.041Z,99.90
2017-10-14T06:35:36.602Z,99.90
2017-10-14T06:38:04.062Z,99.90
2017-10-14T06:40:31.620Z,99.90
2017-10-14T06:42:59.085Z,99.90
2017-10-14T06:45:26.535Z,99.80
2017-10-14T06:47:53.988Z,99.80
2017-10-14T06:50:21.454Z,99.70
2017-10-14T06:52:49.702Z,99.90
2017-10-14T06:55:17.149Z,99.70
2017-10-14T06:57:44.645Z,99.90
2017-10-14T07:00:12.102Z,99.90
2017-10-14T07:02:39.549Z,99.90
2017-10-14T07:05:07.010Z,99.80
2017-10-14T07:07:34.494Z,99.40
2017-10-14T07:10:02.823Z,98.20
2017-10-14T07:12:30.306Z,98.20
2017-10-14T07:14:57.861Z,97.50
2017-10-14T07:17:25.330Z,97.50
2017-10-14T07:19:52.811Z,97.50
2017-10-14T07:22:21.031Z,96.90
2017-10-14T07:24:48.510Z,96.90
2017-10-14T07:27:16.070Z,96.80
2017-10-14T07:29:43.536Z,97.10
2017-10-14T07:32:11.002Z,97.40
2017-10-14T07:34:39.267Z,97.90
2017-10-14T07:37:06.822Z,97.90
2017-10-14T07:39:34.392Z,98.00
2017-10-14T07:42:02.006Z,98.10
2017-10-14T07:44:30.296Z,97.80
2017-10-14T07:46:57.750Z,97.80
2017-10-14T07:49:25.234Z,97.80
2017-10-14T07:51:52.836Z,98.20
2017-10-14T07:54:21.066Z,97.80
2017-10-14T07:56:48.523Z,97.70
2017-10-14T07:59:16.102Z,97.60
2017-10-14T08:01:43.545Z,97.50
2017-10-14T08:04:11.004Z,97.40
2017-10-14T08:06:38.469Z,97.40
2017-10-14T08:09:06.086Z,97.10
2017-10-14T08:11:33.629Z,96.90
2017-10-14T08:14:07.771Z,97.00
2017-10-14T08:16:35.229Z,96.90
2017-10-14T08:19:02.713Z,96.60
2017-10-14T08:21:30.273Z,95.90
2017-10-14T08:23:57.727Z,96.50
2017-10-14T08:26:25.186Z,96.40
2017-10-14T08:28:53.122Z,95.40
2017-10-14T08:31:20.710Z,95.30
2017-10-14T08:33:48.265Z,95.20
2017-10-14T08:36:15.723Z,94.40
2017-10-14T08:38:43.294Z,94.00
2017-10-14T08:41:10.759Z,94.40
2017-10-14T08:43:38.330Z,93.60
2017-10-14T08:46:06.583Z,92.60
2017-10-14T08:48:34.045Z,92.60
2017-10-14T08:51:01.513Z,92.10
2017-10-14T08:53:29.789Z,92.00
2017-10-14T08:55:57.253Z,92.00
2017-10-14T08:58:25.486Z,89.90
2017-10-14T09:00:52.954Z,89.80
2017-10-14T09:03:20.421Z,88.90
2017-10-14T09:05:48.029Z,86.70
2017-10-14T09:08:15.501Z,87.00
2017-10-14T09:10:42.956Z,86.60
2017-10-14T09:13:10.463Z,85.50
2017-10-14T09:15:37.957Z,85.50
2017-10-14T09:18:05.416Z,85.80
2017-10-14T09:20:33.113Z,84.20
2017-10-14T09:23:00.586Z,85.70
2017-10-14T09:25:28.038Z,83.80
2017-10-14T09:27:55.526Z,84.90
2017-10-14T09:30:22.981Z,85.30
2017-10-14T09:32:50.475Z,85.10
2017-10-14T09:35:17.939Z,83.70
2017-10-14T09:37:45.390Z,82.80
2017-10-14T09:40:12.846Z,83.10
2017-10-14T09:42:40.375Z,82.60
2017-10-14T09:45:07.836Z,82.00
2017-10-14T09:47:36.060Z,82.20
2017-10-14T09:50:03.515Z,81.60
2017-10-14T09:52:30.974Z,79.50
2017-10-14T09:54:58.451Z,80.00
2017-10-14T09:57:25.925Z,79.20
2017-10-14T09:59:53.374Z,79.40
2017-10-14T10:02:20.843Z,80.00
2017-10-14T10:04:48.301Z,80.70
2017-10-14T10:07:15.870Z,78.80
2017-10-14T10:09:43.412Z,78.50
2017-10-14T10:12:10.861Z,77.80
2017-10-14T10:14:38.374Z,77.40
2017-10-14T10:17:05.830Z,77.20
2017-10-14T10:19:33.289Z,76.70
2017-10-14T10:22:00.810Z,76.70
2017-10-14T10:24:28.276Z,77.50
2017-10-14T10:26:55.722Z,77.20
2017-10-14T10:29:23.184Z,76.60
2017-10-14T10:31:50.641Z,77.30
2017-10-14T10:34:18.101Z,77.80
2017-10-14T10:36:45.562Z,76.40
2017-10-14T10:39:13.097Z,75.30
2017-10-14T10:41:40.555Z,74.40
2017-10-14T10:44:08.011Z,73.00
2017-10-14T10:46:35.463Z,73.20
2017-10-14T10:49:02.937Z,74.90
2017-10-14T10:51:30.382Z,73.00
2017-10-14T10:53:57.843Z,73.60
2017-10-14T10:56:25.293Z,72.90
2017-10-14T10:58:52.755Z,72.50
2017-10-14T11:01:20.322Z,69.40
2017-10-14T11:03:47.813Z,68.00
2017-10-14T11:06:16.039Z,66.50
2017-10-14T11:08:43.517Z,66.50
2017-10-14T11:11:11.067Z,67.10
2017-10-14T11:13:38.521Z,69.50
2017-10-14T11:16:06.006Z,68.20
2017-10-14T11:18:34.229Z,67.70
2017-10-14T11:21:01.724Z,67.70
2017-10-14T11:23:29.169Z,67.70
2017-10-14T11:25:56.633Z,66.10
2017-10-14T11:28:24.096Z,68.00
2017-10-14T11:30:51.649Z,68.30
2017-10-14T11:33:19.247Z,67.00
2017-10-14T11:35:47.553Z,67.40
2017-10-14T11:38:15.040Z,67.30
2017-10-14T11:40:42.603Z,68.50
2017-10-14T11:43:10.133Z,65.90
2017-10-14T11:45:37.621Z,68.70
2017-10-14T11:48:05.182Z,66.30
2017-10-14T11:50:32.808Z,66.10
2017-10-14T11:53:00.321Z,67.80
2017-10-14T11:55:27.777Z,66.10
2017-10-14T11:57:56.002Z,66.70
2017-10-14T12:00:23.458Z,66.50
2017-10-14T12:02:50.949Z,68.30
2017-10-14T12:05:18.511Z,65.50
2017-10-14T12:07:46.084Z,66.40
2017-10-14T12:10:13.629Z,65.10
2017-10-14T12:12:41.186Z,66.40
2017-10-14T12:15:08.642Z,66.70
2017-10-14T12:17:36.101Z,67.90
2017-10-14T12:20:03.659Z,67.70
2017-10-14T12:22:31.138Z,68.70
2017-10-14T12:24:59.459Z,65.80
2017-10-14T12:27:26.930Z,65.80
2017-10-14T12:29:54.409Z,68.10
2017-10-14T12:32:21.914Z,66.90
2017-10-14T12:34:49.374Z,64.90
2017-10-14T12:37:16.833Z,65.20
2017-10-14T12:39:44.345Z,66.40
2017-10-14T12:42:11.883Z,63.50
2017-10-14T12:44:39.362Z,64.90
2017-10-14T12:47:06.917Z,64.30
2017-10-14T12:49:34.486Z,64.40
2017-10-14T12:52:02.103Z,64.60
2017-10-14T12:54:29.594Z,64.00
2017-10-14T12:56:57.056Z,65.10
2017-10-14T12:59:24.518Z,64.10
2017-10-14T13:01:52.067Z,63.40
2017-10-14T13:04:19.518Z,62.60
2017-10-14T13:06:47.078Z,60.30
2017-10-14T13:09:14.550Z,63.40
2017-10-14T13:11:42.107Z,64.30
2017-10-14T13:14:09.574Z,64.70
2017-10-14T13:16:37.084Z,62.40
2017-10-14T13:19:04.582Z,63.20
2017-10-14T13:21:32.103Z,64.80
2017-10-14T13:23:59.567Z,65.30
2017-10-14T13:26:27.022Z,65.10
2017-10-14T13:28:54.496Z,65.60
2017-10-14T13:31:21.946Z,64.90
2017-10-14T13:33:49.401Z,65.10
2017-10-14T13:36:16.864Z,65.10
2017-10-14T13:38:44.337Z,64.40
2017-10-14T13:41:13.349Z,66.10
2017-10-14T13:43:40.802Z,66.00
2017-10-14T13:46:08.254Z,66.80
2017-10-14T13:48:35.733Z,67.30
2017-10-14T13:51:03.955Z,66.70
2017-10-14T13:53:31.419Z,66.70
2017-10-14T13:55:58.858Z,67.30
2017-10-14T13:58:26.379Z,67.30
2017-10-14T14:00:54.640Z,67.70
2017-10-14T14:03:22.105Z,67.70
2017-10-14T14:05:50.334Z,68.30
2017-10-14T14:08:17.811Z,67.70
2017-10-14T14:10:45.266Z,66.90
2017-10-14T14:13:12.750Z,65.70
2017-10-14T14:15:40.201Z,65.40
2017-10-14T14:18:07.814Z,66.70
2017-10-14T14:20:36.026Z,67.70
2017-10-14T14:23:03.481Z,67.80
2017-10-14T14:25:30.947Z,68.30
2017-10-14T14:27:59.158Z,67.90
2017-10-14T14:30:26.626Z,67.80
2017-10-14T14:32:54.088Z,67.50
2017-10-14T14:35:21.542Z,67.20
2017-10-14T14:37:48.998Z,66.90
2017-10-14T14:40:16.562Z,65.90
2017-10-14T14:42:44.018Z,66.30
2017-10-14T14:45:11.493Z,65.10
2017-10-14T14:47:38.986Z,65.70
2017-10-14T14:50:06.572Z,66.10
2017-10-14T14:52:34.058Z,66.40
2017-10-14T14:55:01.512Z,66.30
2017-10-14T14:57:28.961Z,66.60
2017-10-14T14:59:56.434Z,67.40
2017-10-14T15:02:24.030Z,68.00
2017-10-14T15:04:51.602Z,68.00
2017-10-14T15:07:19.058Z,68.20
2017-10-14T15:09:46.618Z,69.20
2017-10-14T15:12:14.076Z,70.10
2017-10-14T15:14:41.546Z,71.20
2017-10-14T15:17:09.001Z,70.80
2017-10-14T15:19:36.528Z,71.10
2017-10-14T15:22:04.011Z,71.30
2017-10-14T15:24:32.985Z,71.50
2017-10-14T15:27:00.527Z,71.50
2017-10-14T15:29:28.022Z,73.90
2017-10-14T15:31:55.482Z,76.30
2017-10-14T15:34:23.003Z,77.70
2017-10-14T15:36:50.461Z,79.10
2017-10-14T15:39:17.913Z,81.00
2017-10-14T15:41:45.377Z,82.50
2017-10-14T15:44:12.874Z,83.50
2017-10-14T15:46:40.339Z,85.60
2017-10-14T15:49:07.806Z,86.30
2017-10-14T15:51:36.071Z,87.60
2017-10-14T15:54:04.340Z,88.10
2017-10-14T15:56:31.810Z,88.10
2017-10-14T15:58:59.366Z,88.60
2017-10-14T16:01:26.821Z,89.60
2017-10-14T16:03:54.309Z,90.10
2017-10-14T16:06:21.779Z,90.50
2017-10-14T16:08:49.258Z,91.20
2017-10-14T16:11:16.804Z,91.60
2017-10-14T16:13:44.258Z,92.30
2017-10-14T16:16:11.728Z,92.70
2017-10-14T16:18:39.279Z,93.20
2017-10-14T16:21:06.778Z,93.70
2017-10-14T16:23:34.266Z,93.90
2017-10-14T16:26:02.537Z,94.70
2017-10-14T16:28:30.774Z,95.10
2017-10-14T16:30:58.257Z,95.00
2017-10-14T16:33:25.718Z,95.80
2017-10-14T16:35:53.185Z,96.10
2017-10-14T16:38:21.504Z,96.80
2017-10-14T16:40:48.973Z,96.70
2017-10-14T16:43:16.442Z,97.00
2017-10-14T16:45:43.977Z,97.40
2017-10-14T16:48:11.464Z,97.90
2017-10-14T16:50:38.930Z,98.20
2017-10-14T16:53:06.410Z,98.20
2017-10-14T16:55:34.637Z,98.70
2017-10-14T16:58:02.226Z,98.70
2017-10-14T17:00:29.694Z,98.90
2017-10-14T17:02:57.926Z,99.50
2017-10-14T17:05:25.417Z,99.40
2017-10-14T17:07:52.885Z,99.60
2017-10-14T17:10:21.205Z,99.90
2017-10-14T17:12:48.673Z,99.90
2017-10-14T17:15:16.221Z,99.90
2017-10-14T17:17:43.697Z,99.90
2017-10-14T17:20:11.165Z,99.90
2017-10-14T17:22:38.702Z,99.90
2017-10-14T17:25:06.166Z,99.90
2017-10-14T17:27:33.649Z,99.90
2017-10-14T17:30:01.122Z,99.90
2017-10-14T17:32:29.346Z,99.90
2017-10-14T17:34:56.825Z,99.90
2017-10-14T17:37:24.290Z,99.90
2017-10-14T17:39:51.865Z,99.90
2017-10-14T17:42:19.317Z,99.90
2017-10-14T17:44:46.837Z,99.90
2017-10-14T17:47:14.284Z,99.90
2017-10-14T17:49:41.790Z,99.90
2017-10-14T17:52:09.256Z,99.90
2017-10-14T17:54:37.530Z,99.90
2017-10-14T17:57:04.996Z,99.90
2017-10-14T17:59:32.477Z,99.90
2017-10-14T18:01:59.958Z,99.90
2017-10-14T18:04:27.425Z,99.90
2017-10-14T18:06:55.058Z,99.90
2017-10-14T18:09:22.519Z,99.90
2017-10-14T18:11:49.978Z,99.90
2017-10-14T18:14:17.477Z,99.90
2017-10-14T18:16:45.040Z,99.90
2017-10-14T18:19:12.617Z,99.90
2017-10-14T18:21:40.165Z,99.90
2017-10-14T18:24:07.665Z,99.90
2017-10-14T18:26:35.190Z,99.90
2017-10-14T18:29:02.657Z,99.90
2017-10-14T18:31:30.146Z,99.90
2017-10-14T18:33:57.624Z,99.90
2017-10-14T18:36:25.113Z,99.90
2017-10-14T18:38:52.575Z,99.90
2017-10-14T18:41:20.131Z,99.90
2017-10-14T18:43:49.121Z,99.90
2017-10-14T18:46:16.597Z,99.90
2017-10-14T18:48:44.885Z,99.90
2017-10-14T18:51:13.240Z,99.90
2017-10-14T18:53:40.709Z,99.90
2017-10-14T18:56:08.174Z,99.90
2017-10-14T18:58:36.528Z,99.90
2017-10-14T19:01:04.088Z,99.90
2017-10-14T19:03:31.586Z,99.90
2017-10-14T19:05:59.111Z,99.90
2017-10-14T19:08:26.605Z,99.90
2017-10-14T19:10:54.158Z,99.90
2017-10-14T19:13:22.409Z,99.90
2017-10-14T19:15:49.869Z,99.90
2017-10-14T19:18:17.334Z,99.90
2017-10-14T19:20:45.585Z,99.90
2017-10-14T19:23:13.065Z,99.90
2017-10-14T19:25:41.302Z,99.90
2017-10-14T19:28:08.767Z,99.90
2017-10-14T19:30:36.255Z,99.90
2017-10-14T19:33:03.790Z,99.90
2017-10-14T19:35:31.271Z,99.90
2017-10-14T19:37:58.877Z,99.90
2017-10-14T19:40:26.385Z,99.90
2017-10-14T19:42:53.853Z,99.90
2017-10-14T19:45:22.080Z,99.90
2017-10-14T19:47:49.563Z,99.90
2017-10-14T19:50:17.128Z,99.90
2017-10-14T19:52:44.689Z,99.90
2017-10-14T19:55:12.170Z,99.90
2017-10-14T19:57:40.417Z,99.90
2017-10-14T20:00:07.981Z,99.90
2017-10-14T20:02:35.441Z,99.90
2017-10-14T20:05:02.982Z,99.90
2017-10-14T20:07:30.438Z,99.90
2017-10-14T20:09:58.017Z,99.90
2017-10-14T20:12:25.482Z,99.90
2017-10-14T20:14:53.746Z,99.90
2017-10-14T20:17:21.409Z,99.90
2017-10-14T20:19:48.865Z,99.90
2017-10-14T20:22:16.382Z,99.90
2017-10-14T20:24:43.845Z,99.90
2017-10-14T20:27:11.333Z,99.90
2017-10-14T20:29:38.793Z,99.90
2017-10-14T20:32:06.381Z,99.90
2017-10-14T20:34:34.633Z,99.90
2017-10-14T20:37:02.190Z,99.90
2017-10-14T20:39:29.765Z,99.90
2017-10-14T20:41:57.997Z,99.90
2017-10-14T20:44:25.491Z,99.90
2017-10-14T20:46:53.054Z,99.90
2017-10-14T20:49:20.549Z,99.90
2017-10-14T20:51:48.016Z,99.90
2017-10-14T20:54:15.499Z,99.90
2017-10-14T20:56:42.971Z,99.90
2017-10-14T20:59:10.546Z,99.90
2017-10-14T21:01:38.002Z,99.90
2017-10-14T21:04:06.974Z,99.90
2017-10-14T21:06:34.435Z,99.90
2017-10-14T21:09:02.064Z,99.90
2017-10-14T21:11:29.557Z,99.90
2017-10-14T21:13:57.124Z,99.90
2017-10-14T21:16:24.580Z,99.90
2017-10-14T21:18:52.884Z,99.90
2017-10-14T21:21:21.192Z,99.90
2017-10-14T21:23:48.654Z,99.90
2017-10-14T21:26:16.146Z,99.90
2017-10-14T21:31:17.591Z,99.90
2017-10-14T21:33:45.069Z,99.90
2017-10-14T21:36:12.525Z,99.90
2017-10-14T21:38:39.994Z,99.90
2017-10-14T21:41:07.538Z,99.90
2017-10-14T21:43:35.055Z,99.90
2017-10-14T21:46:02.526Z,99.90
2017-10-14T21:48:30.018Z,99.90
2017-10-14T21:50:57.487Z,99.90
2017-10-14T21:53:24.961Z,99.90
2017-10-14T21:55:53.319Z,99.90
2017-10-14T21:58:20.777Z,99.90
2017-10-14T22:00:48.230Z,99.90
2017-10-14T22:03:15.797Z,99.90
2017-10-14T22:05:43.237Z,99.90
2017-10-14T22:08:10.702Z,99.90
2017-10-14T22:10:38.258Z,99.90
2017-10-14T22:13:05.721Z,99.90
2017-10-14T22:15:33.281Z,99.90
2017-10-14T22:18:00.841Z,99.90
2017-10-14T22:20:28.405Z,99.90
2017-10-14T22:22:55.915Z,99.90
2017-10-14T22:25:23.476Z,99.90
2017-10-14T22:27:50.967Z,99.90
2017-10-14T22:30:18.425Z,99.90
2017-10-14T22:32:45.875Z,99.90
2017-10-14T22:35:13.337Z,99.90
2017-10-14T22:37:40.797Z,99.90
2017-10-14T22:40:08.254Z,99.90
2017-10-14T22:42:35.736Z,99.90
2017-10-14T22:45:03.254Z,99.90
2017-10-14T22:47:30.736Z,99.90
2017-10-14T22:49:58.293Z,99.90
2017-10-14T22:52:25.853Z,99.90
2017-10-14T22:54:53.410Z,99.90
2017-10-14T22:57:20.863Z,99.90
2017-10-14T22:59:48.450Z,99.90
2017-10-14T23:02:16.720Z,99.90
2017-10-14T23:04:44.270Z,99.90
2017-10-14T23:07:11.833Z,99.90
2017-10-14T23:09:40.067Z,99.90
2017-10-14T23:12:07.578Z,99.90
2017-10-14T23:14:35.030Z,99.90
2017-10-14T23:17:02.538Z,99.90
2017-10-14T23:19:30.038Z,99.90
2017-10-14T23:21:57.555Z,99.90
2017-10-14T23:24:25.008Z,99.90
2017-10-14T23:26:52.482Z,99.90
2017-10-14T23:29:20.024Z,99.90
2017-10-14T23:31:47.513Z,99.90
2017-10-14T23:34:14.978Z,99.90
2017-10-14T23:36:42.452Z,99.90
2017-10-14T23:39:09.901Z,99.90
2017-10-14T23:41:37.358Z,99.90
2017-10-14T23:44:04.807Z,99.90
2017-10-14T23:46:32.352Z,99.90
2017-10-14T23:48:59.826Z,99.90
2017-10-14T23:51:27.287Z,99.90
2017-10-14T23:53:54.839Z,99.90
2017-10-14T23:56:22.306Z,99.90
2017-10-14T23:58:49.775Z,99.90
